Time;durP1;ratioP1;P1;durP2;ratioP2;P2;SDS_P1;SDS_P2;PMS_P1;PMS_P2;Temp;Humidity;BMP_temperature;BMP_pressure;BME280_temperature;BME280_humidity;BME280_pressure;Samples;Min_cycle;Max_cycle;Signal;HPM_P1;HPM_P2
2022/10/08 00:00:21;;;;;;;18.23;15.97;;;12.40;99.90;;;;;;5094928;28;20246;-48
2022/10/08 00:02:48;;;;;;;19.07;15.87;;;12.40;99.90;;;;;;5093249;28;20204;-48
2022/10/08 00:05:16;;;;;;;20.40;15.07;;;12.40;99.90;;;;;;5094580;28;20211;-48
2022/10/08 00:07:45;;;;;;;24.27;15.87;;;12.30;99.90;;;;;;5092526;28;20213;-49
2022/10/08 00:10:12;;;;;;;16.77;14.60;;;12.30;99.90;;;;;;5093960;28;20215;-48
2022/10/08 00:12:39;;;;;;;16.13;14.53;;;12.20;99.90;;;;;;5092791;28;20204;-48
2022/10/08 00:15:07;;;;;;;20.20;16.27;;;12.20;99.90;;;;;;5087678;28;20208;-48
2022/10/08 00:17:34;;;;;;;20.20;16.77;;;12.10;99.90;;;;;;5091124;28;20696;-48
2022/10/08 00:20:01;;;;;;;17.27;14.63;;;12.10;99.90;;;;;;5085394;28;20216;-48
2022/10/08 00:22:28;;;;;;;17.23;15.47;;;12.10;99.90;;;;;;5091810;28;20203;-48
2022/10/08 00:24:56;;;;;;;19.60;17.13;;;12.10;99.90;;;;;;5088828;28;20207;-48
2022/10/08 00:27:24;;;;;;;19.90;16.57;;;12.20;99.90;;;;;;5088799;28;20562;-48
2022/10/08 00:29:51;;;;;;;16.53;14.70;;;12.20;99.90;;;;;;5093926;28;20220;-48
2022/10/08 00:32:19;;;;;;;22.83;16.97;;;12.20;99.90;;;;;;5091905;28;20643;-47
2022/10/08 00:34:47;;;;;;;18.30;15.53;;;12.20;99.90;;;;;;5091156;28;20682;-49
2022/10/08 00:37:15;;;;;;;19.67;16.07;;;12.20;99.90;;;;;;5087979;28;20219;-49
2022/10/08 00:39:43;;;;;;;16.83;15.13;;;12.20;99.90;;;;;;5093747;28;20301;-48
2022/10/08 00:42:12;;;;;;;16.10;13.37;;;12.20;99.90;;;;;;5092616;28;20221;-47
2022/10/08 00:44:53;;;;;;;17.03;15.23;;;12.30;99.90;;;;;;5087141;28;20207;-47
2022/10/08 00:47:34;;;;;;;18.13;15.13;;;12.30;99.90;;;;;;5093713;28;20196;-48
2022/10/08 00:50:03;;;;;;;17.13;15.40;;;12.50;99.90;;;;;;5090717;28;20220;-48
2022/10/08 00:52:34;;;;;;;17.57;15.53;;;12.50;99.90;;;;;;5090000;28;20211;-48
2022/10/08 00:55:05;;;;;;;15.63;14.00;;;12.50;99.90;;;;;;5080024;28;20199;-47
2022/10/08 00:57:34;;;;;;;15.13;13.57;;;12.50;99.90;;;;;;5091352;28;20580;-49
2022/10/08 01:00:03;;;;;;;14.70;13.20;;;12.40;99.90;;;;;;5085275;28;20239;-48
2022/10/08 01:02:30;;;;;;;14.43;12.03;;;12.40;99.90;;;;;;5090717;28;20203;-48
2022/10/08 01:04:58;;;;;;;17.00;13.10;;;12.40;99.90;;;;;;5085156;28;20203;-48
2022/10/08 01:07:31;;;;;;;14.57;13.10;;;12.40;99.90;;;;;;5090549;28;20200;-49
2022/10/08 01:10:05;;;;;;;15.40;12.30;;;12.40;99.90;;;;;;5092720;28;20242;-49
2022/10/08 01:12:43;;;;;;;16.07;11.03;;;12.40;99.90;;;;;;5093589;28;20200;-49
2022/10/08 01:15:21;;;;;;;12.10;10.90;;;12.40;99.90;;;;;;5090726;28;20688;-47
2022/10/08 01:17:58;;;;;;;11.97;10.77;;;12.50;99.90;;;;;;5091472;28;20662;-47
2022/10/08 01:20:36;;;;;;;12.70;10.90;;;12.50;99.90;;;;;;5093049;28;20232;-48
2022/10/08 01:23:25;;;;;;;11.60;10.37;;;12.50;99.90;;;;;;5092945;28;20211;-48
2022/10/08 01:25:58;;;;;;;12.93;11.20;;;12.70;99.90;;;;;;5091277;28;20203;-48
2022/10/08 01:28:32;;;;;;;12.90;11.60;;;12.70;99.90;;;;;;5091320;28;20291;-48
2022/10/08 01:31:05;;;;;;;12.40;11.10;;;12.70;99.90;;;;;;5086296;28;20223;-48
2022/10/08 01:33:42;;;;;;;13.53;9.97;;;12.60;99.90;;;;;;5092839;28;20619;-49
2022/10/08 01:36:12;;;;;;;11.13;10.00;;;12.60;99.90;;;;;;5091825;28;20237;-48
2022/10/08 01:38:43;;;;;;;11.60;10.03;;;12.60;99.90;;;;;;5092887;28;20199;-48
2022/10/08 01:41:13;;;;;;;10.83;9.00;;;12.60;99.90;;;;;;5085412;28;20219;-48
2022/10/08 01:43:46;;;;;;;10.43;9.53;;;12.50;99.90;;;;;;5092352;28;20200;-48
2022/10/08 01:46:19;;;;;;;9.70;8.67;;;12.50;99.90;;;;;;5085201;28;20200;-48
2022/10/08 01:48:49;;;;;;;11.27;10.03;;;12.50;99.90;;;;;;5090739;28;20214;-48
2022/10/08 01:51:22;;;;;;;11.60;10.40;;;12.40;99.90;;;;;;5092403;28;20234;-49
2022/10/08 01:53:51;;;;;;;11.17;9.83;;;12.40;99.90;;;;;;5089759;28;20203;-49
2022/10/08 01:56:22;;;;;;;13.80;11.83;;;12.40;99.90;;;;;;5089607;28;20606;-48
2022/10/08 01:58:56;;;;;;;10.47;9.47;;;12.40;99.90;;;;;;5088401;28;20207;-47
2022/10/08 02:01:28;;;;;;;11.60;10.50;;;12.40;99.90;;;;;;5092358;28;20287;-48
2022/10/08 02:06:48;;;;;;;10.10;9.30;;;12.40;99.90;;;;;;5088799;28;20207;-48
2022/10/08 02:09:15;;;;;;;11.23;10.03;;;12.40;99.90;;;;;;5091205;28;20593;-47
2022/10/08 02:11:42;;;;;;;14.23;11.20;;;12.40;99.90;;;;;;5092289;28;20261;-49
2022/10/08 02:14:11;;;;;;;11.17;9.90;;;12.40;99.90;;;;;;5092006;28;20571;-48
2022/10/08 02:16:46;;;;;;;10.70;9.70;;;12.40;99.90;;;;;;5090767;28;20220;-47
2022/10/08 02:19:21;;;;;;;12.40;10.07;;;12.40;99.90;;;;;;5088381;28;20192;-48
2022/10/08 02:21:51;;;;;;;11.70;10.50;;;12.50;99.90;;;;;;5082715;28;20197;-48
2022/10/08 02:24:21;;;;;;;11.10;10.13;;;12.50;99.90;;;;;;5085964;28;20200;-47
2022/10/08 02:26:53;;;;;;;11.70;10.40;;;12.50;99.90;;;;;;5091687;28;20560;-48
2022/10/08 02:29:27;;;;;;;11.47;9.83;;;12.50;99.90;;;;;;5091885;28;20227;-48
2022/10/08 02:31:58;;;;;;;12.77;9.90;;;12.40;99.90;;;;;;5084262;28;20688;-48
2022/10/08 02:34:31;;;;;;;10.07;8.90;;;12.50;99.90;;;;;;5090465;28;20206;-48
2022/10/08 02:37:04;;;;;;;13.13;10.40;;;12.50;99.90;;;;;;5088974;28;20219;-48
2022/10/08 02:39:36;;;;;;;9.47;8.53;;;12.50;99.90;;;;;;5090133;28;20224;-48
2022/10/08 02:42:08;;;;;;;9.33;8.53;;;12.50;99.90;;;;;;5081789;28;20204;-48
2022/10/08 02:44:40;;;;;;;8.93;8.07;;;12.60;99.90;;;;;;5088691;28;20216;-48
2022/10/08 02:47:13;;;;;;;9.87;8.87;;;12.60;99.90;;;;;;5091778;28;20197;-48
2022/10/08 02:49:46;;;;;;;11.60;7.77;;;12.60;99.90;;;;;;5091773;28;20587;-48
2022/10/08 02:52:15;;;;;;;10.33;8.80;;;12.60;99.90;;;;;;5090227;28;20618;-48
2022/10/08 02:54:44;;;;;;;8.30;7.60;;;12.60;99.90;;;;;;5086364;28;20258;-48
2022/10/08 02:57:16;;;;;;;9.40;7.40;;;12.60;99.90;;;;;;5090868;28;20215;-49
2022/10/08 02:59:45;;;;;;;7.40;6.70;;;12.70;99.90;;;;;;5091668;28;20234;-48
2022/10/08 03:02:17;;;;;;;8.00;7.33;;;12.70;99.90;;;;;;5091457;28;20682;-48
2022/10/08 03:04:50;;;;;;;7.63;7.03;;;12.70;99.90;;;;;;5090271;28;20211;-48
2022/10/08 03:07:21;;;;;;;8.33;7.53;;;12.70;99.90;;;;;;5089489;28;20206;-48
2022/10/08 03:09:51;;;;;;;8.43;7.03;;;12.70;99.90;;;;;;5088865;28;20224;-48
2022/10/08 03:12:19;;;;;;;9.27;6.87;;;12.80;99.90;;;;;;5103575;28;20197;-48
2022/10/08 03:14:49;;;;;;;7.87;7.20;;;12.80;99.90;;;;;;5108881;28;20229;-48
2022/10/08 03:17:22;;;;;;;7.03;6.47;;;12.80;99.90;;;;;;5111486;28;20200;-47
2022/10/08 03:19:49;;;;;;;9.30;7.00;;;12.80;99.90;;;;;;5094673;28;20246;-48
2022/10/08 03:22:17;;;;;;;7.57;6.80;;;12.80;99.90;;;;;;5087260;28;20203;-48
2022/10/08 03:24:44;;;;;;;9.43;7.23;;;12.80;99.90;;;;;;5089314;28;20208;-47
2022/10/08 03:27:11;;;;;;;8.97;7.07;;;12.70;99.90;;;;;;5092151;28;20204;-48
2022/10/08 03:29:38;;;;;;;6.37;5.93;;;12.70;99.90;;;;;;5095293;28;20233;-48
2022/10/08 03:32:06;;;;;;;6.67;6.23;;;12.80;99.90;;;;;;5081723;28;20234;-48
2022/10/08 03:34:33;;;;;;;8.37;6.40;;;12.70;99.90;;;;;;5074630;28;20200;-48
2022/10/08 03:37:00;;;;;;;6.67;6.27;;;12.70;99.90;;;;;;5094714;28;20211;-48
2022/10/08 03:39:27;;;;;;;7.57;6.87;;;12.70;99.90;;;;;;5087795;28;20559;-48
2022/10/08 03:41:54;;;;;;;6.73;6.13;;;12.70;99.90;;;;;;5095131;28;20197;-48
2022/10/08 03:44:21;;;;;;;6.63;6.00;;;12.70;99.90;;;;;;5094822;28;20677;-48
2022/10/08 03:46:48;;;;;;;6.83;5.50;;;12.70;99.90;;;;;;5091638;28;20203;-47
2022/10/08 03:49:17;;;;;;;6.63;6.13;;;12.80;99.90;;;;;;5088065;28;20215;-47
2022/10/08 03:51:44;;;;;;;6.80;6.27;;;12.70;99.90;;;;;;5094210;28;20212;-47
2022/10/08 03:54:12;;;;;;;6.83;6.17;;;12.80;99.90;;;;;;5085404;28;20203;-48
2022/10/08 03:56:39;;;;;;;6.43;5.83;;;12.80;99.90;;;;;;5094693;28;20192;-47
2022/10/08 03:59:06;;;;;;;7.80;6.63;;;12.80;99.90;;;;;;5094781;28;20199;-49
2022/10/08 04:01:33;;;;;;;5.73;5.10;;;12.70;99.90;;;;;;5094707;28;20249;-48
2022/10/08 04:04:00;;;;;;;6.10;5.50;;;12.70;99.90;;;;;;5094505;28;20208;-47
2022/10/08 04:06:29;;;;;;;5.87;5.43;;;12.70;99.90;;;;;;5079962;28;20197;-48
2022/10/08 04:08:59;;;;;;;7.80;5.27;;;12.80;99.90;;;;;;5093104;28;20196;-47
2022/10/08 04:11:27;;;;;;;17.10;6.40;;;12.80;99.90;;;;;;5094528;28;20210;-48
2022/10/08 04:13:55;;;;;;;6.90;6.33;;;12.80;99.90;;;;;;5090022;28;20661;-47
2022/10/08 04:16:22;;;;;;;7.73;6.50;;;12.80;99.90;;;;;;5094164;28;20203;-47
2022/10/08 04:18:49;;;;;;;11.43;6.80;;;12.80;99.90;;;;;;5085094;28;20708;-47
2022/10/08 04:21:18;;;;;;;7.80;7.20;;;12.70;99.90;;;;;;5094081;28;20238;-49
2022/10/08 04:23:48;;;;;;;7.13;6.63;;;12.70;99.90;;;;;;5075550;28;20231;-48
2022/10/08 04:26:15;;;;;;;8.47;7.77;;;12.70;99.90;;;;;;5079517;28;20265;-48
2022/10/08 04:28:44;;;;;;;10.30;7.03;;;12.70;99.90;;;;;;5092217;28;20211;-48
2022/10/08 04:31:15;;;;;;;8.27;7.23;;;12.60;99.90;;;;;;5093790;28;20226;-47
2022/10/08 04:33:44;;;;;;;6.83;6.23;;;12.60;99.90;;;;;;5085734;28;20209;-47
2022/10/08 04:36:13;;;;;;;7.20;6.50;;;12.50;99.90;;;;;;5088810;28;20249;-48
2022/10/08 04:38:43;;;;;;;8.63;7.27;;;12.50;99.90;;;;;;5092018;28;20198;-48
2022/10/08 04:41:13;;;;;;;7.63;6.63;;;12.50;99.90;;;;;;5088708;28;20212;-48
2022/10/08 04:43:42;;;;;;;7.03;6.40;;;12.50;99.90;;;;;;5073556;28;20244;-48
2022/10/08 04:46:12;;;;;;;6.40;5.90;;;12.50;99.90;;;;;;5082585;28;20200;-47
2022/10/08 04:48:40;;;;;;;7.47;5.87;;;12.50;99.90;;;;;;5082959;28;20218;-48
2022/10/08 04:51:08;;;;;;;7.10;6.37;;;12.50;99.90;;;;;;5093309;28;20241;-48
2022/10/08 04:53:38;;;;;;;6.40;5.77;;;12.60;99.90;;;;;;5087659;28;20699;-49
2022/10/08 04:56:12;;;;;;;8.07;6.30;;;12.50;99.90;;;;;;5083769;28;20205;-48
2022/10/08 04:58:40;;;;;;;6.50;6.00;;;12.60;99.90;;;;;;5083037;28;20201;-48
2022/10/08 05:01:11;;;;;;;6.27;5.70;;;12.60;99.90;;;;;;5091235;28;20223;-48
2022/10/08 05:03:42;;;;;;;5.17;4.70;;;12.60;99.90;;;;;;5085269;28;20189;-48
2022/10/08 05:06:10;;;;;;;6.43;5.77;;;12.60;99.90;;;;;;5093620;28;20206;-48
2022/10/08 05:08:41;;;;;;;6.43;5.93;;;12.60;99.90;;;;;;5093332;28;20549;-48
2022/10/08 05:11:08;;;;;;;6.87;5.80;;;12.60;99.90;;;;;;5093481;28;20640;-48
2022/10/08 05:13:37;;;;;;;8.27;7.07;;;12.60;99.90;;;;;;5090445;28;20210;-47
2022/10/08 05:16:05;;;;;;;7.87;7.07;;;12.70;99.90;;;;;;5093216;28;20207;-48
2022/10/08 05:18:33;;;;;;;9.27;8.30;;;12.60;99.90;;;;;;5093386;28;20577;-48
2022/10/08 05:21:03;;;;;;;9.00;6.77;;;12.60;99.90;;;;;;5088256;28;20223;-47
2022/10/08 05:23:31;;;;;;;7.27;6.20;;;12.60;99.90;;;;;;5092570;28;20196;-48
2022/10/08 05:25:58;;;;;;;6.97;6.37;;;12.60;99.90;;;;;;5090818;28;20209;-49
2022/10/08 05:28:25;;;;;;;6.57;6.07;;;12.60;99.90;;;;;;5088968;28;20196;-48
2022/10/08 05:30:58;;;;;;;6.50;6.00;;;12.60;99.90;;;;;;5077208;28;20223;-48
2022/10/08 05:33:25;;;;;;;6.37;5.97;;;12.60;99.90;;;;;;5077203;28;20248;-47
2022/10/08 05:35:52;;;;;;;10.13;5.27;;;12.60;99.90;;;;;;5092980;28;20207;-48
2022/10/08 05:38:19;;;;;;;5.27;4.87;;;12.60;99.90;;;;;;5092380;28;20237;-47
2022/10/08 05:40:46;;;;;;;5.97;5.53;;;12.70;99.90;;;;;;5092327;28;20218;-48
2022/10/08 05:43:13;;;;;;;5.77;5.17;;;12.70;99.90;;;;;;5082586;28;20265;-47
2022/10/08 05:45:48;;;;;;;6.23;5.70;;;12.70;99.90;;;;;;5073855;28;20239;-48
2022/10/08 05:48:17;;;;;;;7.43;6.83;;;12.80;99.90;;;;;;5079155;28;20254;-48
2022/10/08 05:50:44;;;;;;;7.10;6.33;;;12.80;99.90;;;;;;5080021;28;20697;-47
2022/10/08 05:53:11;;;;;;;7.80;6.90;;;12.70;99.90;;;;;;5088021;28;20209;-47
2022/10/08 05:55:38;;;;;;;7.53;6.80;;;12.70;99.90;;;;;;5079163;28;20613;-49
2022/10/08 05:58:06;;;;;;;7.20;6.70;;;12.70;99.90;;;;;;5076785;28;20199;-47
2022/10/08 06:00:33;;;;;;;9.97;7.03;;;12.70;99.90;;;;;;5090199;28;20664;-47
2022/10/08 06:03:00;;;;;;;6.30;5.93;;;12.70;99.90;;;;;;5092207;28;20206;-48
2022/10/08 06:05:29;;;;;;;6.77;6.00;;;12.70;99.90;;;;;;5088020;28;20613;-48
2022/10/08 06:07:58;;;;;;;5.73;5.33;;;12.70;99.90;;;;;;5091112;28;20213;-48
2022/10/08 06:10:25;;;;;;;7.00;5.03;;;12.70;99.90;;;;;;5086587;28;20589;-48
2022/10/08 06:12:52;;;;;;;5.13;4.47;;;12.60;99.90;;;;;;5077980;28;20589;-48
2022/10/08 06:15:19;;;;;;;4.30;4.10;;;12.70;99.90;;;;;;5083116;28;20249;-48
2022/10/08 06:17:46;;;;;;;10.70;5.67;;;12.80;99.90;;;;;;5086179;28;20205;-48
2022/10/08 06:20:13;;;;;;;4.97;4.47;;;12.80;99.90;;;;;;5089802;28;20231;-48
2022/10/08 06:22:42;;;;;;;4.43;4.23;;;12.80;99.90;;;;;;5087880;28;20258;-49
2022/10/08 06:25:09;;;;;;;4.70;4.30;;;12.80;99.90;;;;;;5086184;28;20226;-49
2022/10/08 06:27:36;;;;;;;4.97;4.57;;;12.80;99.90;;;;;;5082880;28;20201;-47
2022/10/08 06:30:04;;;;;;;8.37;6.03;;;12.80;99.90;;;;;;5083688;28;20220;-48
2022/10/08 06:32:32;;;;;;;5.80;5.30;;;12.90;99.90;;;;;;5091588;28;20200;-48
2022/10/08 06:34:59;;;;;;;6.63;5.47;;;12.90;99.90;;;;;;5084766;28;20199;-48
2022/10/08 06:37:26;;;;;;;5.87;5.23;;;13.00;99.90;;;;;;5091325;28;20321;-47
2022/10/08 06:39:54;;;;;;;6.03;5.43;;;13.00;99.90;;;;;;5088598;28;20765;-48
2022/10/08 06:42:21;;;;;;;6.30;5.80;;;13.00;99.90;;;;;;5084882;28;20260;-48
2022/10/08 06:44:48;;;;;;;5.47;5.03;;;12.90;99.90;;;;;;5077223;28;20209;-48
2022/10/08 06:47:15;;;;;;;5.40;5.00;;;12.90;99.90;;;;;;5085809;28;20207;-48
2022/10/08 06:49:43;;;;;;;6.70;4.00;;;12.90;99.90;;;;;;5081529;28;20216;-48
2022/10/08 06:52:11;;;;;;;4.70;4.30;;;13.00;99.90;;;;;;5076976;28;20213;-47
2022/10/08 06:54:38;;;;;;;6.10;5.60;;;13.00;99.90;;;;;;5081057;28;20278;-48
2022/10/08 06:57:07;;;;;;;5.93;5.33;;;13.00;99.90;;;;;;5085576;28;20291;-48
2022/10/08 06:59:34;;;;;;;4.50;4.20;;;13.00;99.90;;;;;;5087540;28;20277;-48
2022/10/08 07:02:01;;;;;;;4.70;4.43;;;13.00;99.90;;;;;;5091533;28;20689;-48
2022/10/08 07:04:28;;;;;;;6.10;5.53;;;13.00;99.90;;;;;;5091664;28;20324;-48
2022/10/08 07:06:55;;;;;;;7.70;7.00;;;13.00;99.90;;;;;;5091717;28;20250;-48
2022/10/08 07:09:22;;;;;;;7.73;4.87;;;13.00;99.90;;;;;;5076143;28;20270;-48
2022/10/08 07:11:49;;;;;;;4.73;4.40;;;13.00;99.90;;;;;;5072089;28;20232;-48
2022/10/08 07:14:17;;;;;;;6.43;4.57;;;13.10;99.90;;;;;;5071504;28;20214;-47
2022/10/08 07:16:44;;;;;;;5.07;4.67;;;13.10;99.90;;;;;;5071305;28;20208;-48
2022/10/08 07:19:11;;;;;;;4.53;4.13;;;13.10;99.90;;;;;;5071352;28;20200;-48
2022/10/08 07:21:39;;;;;;;3.77;3.47;;;13.10;99.90;;;;;;5071219;28;20197;-48
2022/10/08 07:24:06;;;;;;;4.63;4.33;;;13.20;99.90;;;;;;5071592;28;20206;-47
2022/10/08 07:26:34;;;;;;;4.60;4.20;;;13.20;99.90;;;;;;5109641;28;20200;-47
2022/10/08 07:29:04;;;;;;;4.03;3.57;;;13.20;99.90;;;;;;5101670;28;20212;-47
2022/10/08 07:31:36;;;;;;;5.10;4.70;;;13.20;99.90;;;;;;5071833;28;20767;-48
2022/10/08 07:34:05;;;;;;;4.97;4.67;;;13.20;99.90;;;;;;5081262;28;20203;-48
2022/10/08 07:36:32;;;;;;;5.95;5.53;;;13.20;99.90;;;;;;5082123;28;20440;-48
2022/10/08 07:39:01;;;;;;;5.10;4.40;;;13.30;99.90;;;;;;5088445;28;20200;-48
2022/10/08 07:41:30;;;;;;;4.73;4.27;;;13.40;99.90;;;;;;5090048;28;20275;-49
2022/10/08 07:43:59;;;;;;;4.37;4.03;;;13.40;99.90;;;;;;5083371;28;20201;-48
2022/10/08 07:46:26;;;;;;;4.53;4.13;;;13.40;99.90;;;;;;5086338;28;20686;-48
2022/10/08 07:48:57;;;;;;;6.10;5.53;;;13.40;99.90;;;;;;5084212;28;20208;-49
2022/10/08 07:51:25;;;;;;;5.70;5.30;;;13.50;99.90;;;;;;5085488;28;20268;-47
2022/10/08 07:53:52;;;;;;;9.57;4.03;;;13.50;99.90;;;;;;5084878;28;20206;-48
2022/10/08 07:56:22;;;;;;;4.10;3.80;;;13.50;99.90;;;;;;5094771;28;20196;-47
2022/10/08 07:58:50;;;;;;;6.77;4.10;;;13.40;99.90;;;;;;5089509;28;20214;-48
2022/10/08 08:01:20;;;;;;;4.50;4.20;;;13.40;99.90;;;;;;5094322;28;20213;-48
2022/10/08 08:03:55;;;;;;;3.83;3.53;;;13.30;99.90;;;;;;5088653;28;20204;-48
2022/10/08 08:06:22;;;;;;;5.73;4.33;;;13.30;99.90;;;;;;5093804;28;20224;-47
2022/10/08 08:08:50;;;;;;;4.83;3.90;;;13.20;99.90;;;;;;5090888;28;20207;-48
2022/10/08 08:11:19;;;;;;;5.40;5.00;;;13.30;99.90;;;;;;5088663;28;20223;-48
2022/10/08 08:13:46;;;;;;;9.13;5.73;;;13.40;99.90;;;;;;5088443;28;20204;-47
2022/10/08 08:16:16;;;;;;;5.17;4.77;;;13.40;99.90;;;;;;5093224;28;20296;-48
2022/10/08 08:18:45;;;;;;;5.20;4.70;;;13.40;99.90;;;;;;5102765;28;20219;-48
2022/10/08 08:21:15;;;;;;;5.70;5.20;;;13.40;99.90;;;;;;5083438;28;20225;-48
2022/10/08 08:23:44;;;;;;;6.10;4.80;;;13.50;99.90;;;;;;5087378;28;20217;-48
2022/10/08 08:26:13;;;;;;;5.17;4.63;;;13.50;99.90;;;;;;5090103;28;20197;-47
2022/10/08 08:28:43;;;;;;;4.90;4.57;;;13.60;99.90;;;;;;5085342;28;20674;-49
2022/10/08 08:31:11;;;;;;;6.07;5.57;;;13.70;99.90;;;;;;5085780;28;20216;-48
2022/10/08 08:33:43;;;;;;;5.87;5.37;;;13.70;99.90;;;;;;5084229;28;20200;-48
2022/10/08 08:36:10;;;;;;;6.17;5.67;;;13.90;99.90;;;;;;5080719;28;20193;-48
2022/10/08 08:38:41;;;;;;;5.83;5.33;;;14.00;99.90;;;;;;5076518;28;20204;-48
2022/10/08 08:41:20;;;;;;;7.13;6.53;;;14.10;99.90;;;;;;5078599;28;20217;-49
2022/10/08 08:43:48;;;;;;;6.00;5.43;;;14.20;99.90;;;;;;5087831;28;20284;-49
2022/10/08 08:46:21;;;;;;;6.13;5.53;;;14.30;99.90;;;;;;5093284;28;20228;-49
2022/10/08 08:48:51;;;;;;;5.47;5.07;;;14.40;99.90;;;;;;5092978;28;20582;-48
2022/10/08 08:51:18;;;;;;;6.50;5.03;;;14.50;99.90;;;;;;5086494;28;20236;-48
2022/10/08 08:53:47;;;;;;;7.27;5.27;;;14.50;99.90;;;;;;5083837;28;20206;-48
2022/10/08 08:56:19;;;;;;;5.17;4.67;;;14.60;99.90;;;;;;5092693;28;20666;-48
2022/10/08 08:58:51;;;;;;;6.10;5.70;;;14.70;99.90;;;;;;5093124;28;20201;-48
2022/10/08 09:01:27;;;;;;;5.03;4.63;;;14.80;99.90;;;;;;5082445;28;20213;-49
2022/10/08 09:03:58;;;;;;;5.30;4.80;;;14.80;99.90;;;;;;5084085;28;20635;-49
2022/10/08 09:06:26;;;;;;;5.97;4.77;;;14.80;99.90;;;;;;5094725;22;20289;-50
2022/10/08 09:08:59;;;;;;;6.43;4.73;;;14.80;99.90;;;;;;5008292;28;20218;-50
2022/10/08 09:11:29;;;;;;;5.63;5.27;;;14.80;99.90;;;;;;5005979;28;20219;-50
2022/10/08 09:14:00;;;;;;;6.23;5.53;;;14.80;99.90;;;;;;5010545;28;20269;-50
2022/10/08 09:16:27;;;;;;;5.07;4.67;;;14.80;99.90;;;;;;5008834;28;20239;-50
2022/10/08 09:18:55;;;;;;;7.33;4.70;;;14.80;99.90;;;;;;5005298;28;20257;-50
2022/10/08 09:21:33;;;;;;;5.47;4.73;;;14.70;99.90;;;;;;5012566;28;20214;-50
2022/10/08 09:24:01;;;;;;;4.90;4.43;;;14.70;99.90;;;;;;5005485;28;20207;-50
2022/10/08 09:26:31;;;;;;;6.00;5.50;;;14.80;99.90;;;;;;5009250;28;20216;-50
2022/10/08 09:28:59;;;;;;;6.13;5.60;;;14.80;99.90;;;;;;5008985;28;20203;-50
2022/10/08 09:31:30;;;;;;;5.43;4.97;;;14.80;99.90;;;;;;5008951;28;20215;-50
2022/10/08 09:34:04;;;;;;;6.27;5.27;;;14.80;99.90;;;;;;5010204;28;20221;-50
2022/10/08 09:36:37;;;;;;;5.47;4.97;;;14.80;99.90;;;;;;5014984;28;20215;-50
2022/10/08 09:39:14;;;;;;;5.53;4.87;;;14.90;99.90;;;;;;5008472;28;20265;-50
2022/10/08 09:41:41;;;;;;;6.90;5.17;;;14.90;99.90;;;;;;5008313;28;20474;-50
2022/10/08 09:44:17;;;;;;;5.67;5.10;;;15.00;99.90;;;;;;5010490;28;20291;-50
2022/10/08 09:46:45;;;;;;;5.40;4.33;;;15.00;99.90;;;;;;5010729;28;20269;-50
2022/10/08 09:49:30;;;;;;;4.97;4.60;;;15.10;99.90;;;;;;5008719;28;20211;-51
2022/10/08 09:52:01;;;;;;;5.23;4.83;;;15.10;99.90;;;;;;5007319;28;20306;-50
2022/10/08 09:54:34;;;;;;;5.27;4.83;;;15.20;99.90;;;;;;5009199;28;20203;-50
2022/10/08 09:57:01;;;;;;;8.13;5.97;;;15.20;99.90;;;;;;5008350;28;20248;-50
2022/10/08 09:59:30;;;;;;;6.00;5.27;;;15.20;99.90;;;;;;5009840;28;20210;-51
2022/10/08 10:01:58;;;;;;;7.47;5.43;;;15.20;99.90;;;;;;5009927;28;20203;-50
2022/10/08 10:04:35;;;;;;;5.97;5.57;;;15.20;99.90;;;;;;5008221;28;20681;-50
2022/10/08 10:07:04;;;;;;;8.40;7.47;;;15.20;99.90;;;;;;5008487;28;20604;-51
2022/10/08 10:09:44;;;;;;;12.73;11.63;;;15.30;99.90;;;;;;5009731;28;20195;-50
2022/10/08 10:12:22;;;;;;;9.20;8.50;;;15.30;99.90;;;;;;5007505;28;20238;-50
2022/10/08 10:14:55;;;;;;;13.13;11.53;;;15.40;99.90;;;;;;5006950;28;20206;-50
2022/10/08 10:17:31;;;;;;;8.90;8.00;;;15.40;99.90;;;;;;5006830;28;20230;-50
2022/10/08 10:20:03;;;;;;;13.60;7.60;;;15.50;99.90;;;;;;5011485;28;20622;-50
2022/10/08 10:22:35;;;;;;;7.33;6.13;;;15.50;99.90;;;;;;5009539;28;20261;-50
2022/10/08 10:25:08;;;;;;;11.90;10.77;;;15.60;99.90;;;;;;5006926;28;20203;-50
2022/10/08 10:27:38;;;;;;;25.53;15.63;;;15.70;99.90;;;;;;5005312;28;20813;-50
2022/10/08 10:30:14;;;;;;;26.97;19.57;;;15.80;99.90;;;;;;5007148;28;20743;-50
2022/10/08 10:32:46;;;;;;;13.27;9.07;;;16.00;99.90;;;;;;5008357;28;20230;-50
2022/10/08 10:35:19;;;;;;;6.93;6.27;;;16.00;99.90;;;;;;5011715;28;20207;-51
2022/10/08 10:37:50;;;;;;;5.03;4.77;;;16.00;99.90;;;;;;5010326;28;20227;-51
2022/10/08 10:40:30;;;;;;;4.53;4.23;;;16.00;99.90;;;;;;5011559;28;20269;-50
2022/10/08 10:43:23;;;;;;;4.83;4.27;;;16.00;99.90;;;;;;5007405;28;20195;-50
2022/10/08 10:45:58;;;;;;;4.23;3.93;;;16.10;99.90;;;;;;5003760;28;20264;-50
2022/10/08 10:48:25;;;;;;;5.57;5.07;;;16.10;99.90;;;;;;5006756;28;20234;-50
2022/10/08 10:51:08;;;;;;;5.43;5.03;;;16.20;99.90;;;;;;5010340;28;20237;-50
2022/10/08 10:53:49;;;;;;;5.60;5.20;;;16.20;99.90;;;;;;4999075;28;20613;-50
2022/10/08 10:56:20;;;;;;;6.77;6.17;;;16.20;99.90;;;;;;5004432;28;20219;-50
2022/10/08 10:59:21;;;;;;;6.17;5.70;;;16.20;99.90;;;;;;5011262;28;20218;-51
2022/10/08 11:01:54;;;;;;;10.10;7.80;;;16.30;99.90;;;;;;5008558;28;20207;-51
2022/10/08 11:04:32;;;;;;;7.03;5.90;;;16.30;99.90;;;;;;5009960;28;20653;-51
2022/10/08 11:07:23;;;;;;;8.03;6.33;;;16.40;99.90;;;;;;5009495;28;20289;-51
2022/10/08 11:09:58;;;;;;;7.40;5.97;;;16.50;99.90;;;;;;5010269;28;20199;-50
2022/10/08 11:12:36;;;;;;;6.13;5.53;;;16.50;99.90;;;;;;5010647;28;20214;-51
2022/10/08 11:15:16;;;;;;;5.60;5.10;;;16.60;99.90;;;;;;5002874;28;20253;-51
2022/10/08 11:17:58;;;;;;;5.73;5.33;;;16.70;99.90;;;;;;5008200;28;20296;-51
2022/10/08 11:20:48;;;;;;;5.43;5.13;;;16.70;99.90;;;;;;5009969;28;20254;-51
2022/10/08 11:23:30;;;;;;;5.17;4.67;;;16.70;99.90;;;;;;5008611;28;20207;-51
2022/10/08 11:26:02;;;;;;;5.73;5.20;;;16.70;99.90;;;;;;5010953;28;20207;-51
2022/10/08 11:28:41;;;;;;;5.63;5.13;;;16.70;99.90;;;;;;5013088;28;20262;-51
2022/10/08 11:31:17;;;;;;;5.67;5.27;;;16.70;99.90;;;;;;5026139;28;20248;-51
2022/10/08 11:33:46;;;;;;;4.80;4.40;;;16.70;99.90;;;;;;5021539;28;20199;-51
2022/10/08 11:36:23;;;;;;;4.27;4.07;;;16.60;99.90;;;;;;5014411;28;20219;-51
2022/10/08 11:38:56;;;;;;;4.53;4.07;;;16.60;99.90;;;;;;5014734;28;20265;-50
2022/10/08 11:41:30;;;;;;;4.30;4.10;;;16.50;99.90;;;;;;5012264;28;20626;-51
2022/10/08 11:44:01;;;;;;;5.07;4.57;;;16.50;99.90;;;;;;5009229;28;20199;-51
2022/10/08 11:46:30;;;;;;;5.13;4.73;;;16.40;99.90;;;;;;5011935;28;20571;-51
2022/10/08 11:48:59;;;;;;;6.27;5.77;;;16.30;99.90;;;;;;5013227;28;20206;-50
2022/10/08 11:51:40;;;;;;;6.87;5.97;;;16.30;99.90;;;;;;5005301;28;20249;-51
2022/10/08 11:54:23;;;;;;;6.23;5.73;;;16.30;99.90;;;;;;5014848;28;20555;-50
2022/10/08 11:56:52;;;;;;;6.53;6.03;;;16.20;99.90;;;;;;5011571;28;20285;-51
2022/10/08 11:59:34;;;;;;;5.82;5.40;;;16.10;99.90;;;;;;5007434;28;20915;-51
2022/10/08 12:02:03;;;;;;;6.60;6.00;;;16.00;99.90;;;;;;5014548;28;20210;-51
2022/10/08 12:04:34;;;;;;;5.60;5.30;;;15.90;99.90;;;;;;5010082;28;20338;-51
2022/10/08 12:07:06;;;;;;;8.90;7.97;;;15.80;99.90;;;;;;5005627;28;20231;-50
2022/10/08 12:10:01;;;;;;;8.10;7.50;;;15.70;99.90;;;;;;5013989;28;20269;-51
2022/10/08 12:13:00;;;;;;;8.57;7.73;;;15.60;99.90;;;;;;5011859;28;20293;-50
2022/10/08 12:15:54;;;;;;;8.67;7.97;;;15.50;99.90;;;;;;5002336;28;20282;-51
2022/10/08 12:18:52;;;;;;;10.60;9.43;;;15.40;99.90;;;;;;5009842;28;20261;-51
2022/10/08 12:21:55;;;;;;;11.00;9.90;;;15.30;99.90;;;;;;5006729;28;20286;-50
2022/10/08 12:24:57;;;;;;;10.40;9.33;;;15.30;99.90;;;;;;5007801;28;20254;-50
2022/10/08 12:27:27;;;;;;;10.43;9.43;;;15.20;99.90;;;;;;5013496;28;20230;-50
2022/10/08 12:29:55;;;;;;;17.00;12.80;;;15.10;99.90;;;;;;5013420;28;20653;-50
2022/10/08 12:32:25;;;;;;;12.87;11.07;;;15.00;99.90;;;;;;5012959;28;20226;-50
2022/10/08 12:34:52;;;;;;;12.17;11.00;;;15.00;99.90;;;;;;5011032;28;20261;-51
2022/10/08 12:37:42;;;;;;;12.30;11.10;;;14.90;99.90;;;;;;5013255;28;20709;-50
2022/10/08 12:40:17;;;;;;;11.00;9.83;;;14.90;99.90;;;;;;5010771;28;20301;-50
2022/10/08 12:42:46;;;;;;;10.93;9.83;;;14.90;99.90;;;;;;5011961;28;20214;-50
2022/10/08 12:45:21;;;;;;;14.70;13.23;;;14.80;99.90;;;;;;5012311;28;20227;-50
2022/10/08 12:47:56;;;;;;;14.23;12.83;;;14.70;99.90;;;;;;5012344;28;20269;-50
2022/10/08 12:50:39;;;;;;;15.27;13.00;;;14.60;99.90;;;;;;5013054;28;20253;-50
2022/10/08 12:53:07;;;;;;;12.37;11.07;;;14.50;99.90;;;;;;5009144;28;20222;-50
2022/10/08 12:55:45;;;;;;;11.10;10.10;;;14.50;99.90;;;;;;5013019;28;20619;-50
2022/10/08 12:58:18;;;;;;;12.43;10.03;;;14.40;99.90;;;;;;5011816;28;20222;-50
2022/10/08 13:00:50;;;;;;;12.33;10.03;;;14.40;99.90;;;;;;5012821;28;20207;-50
2022/10/08 13:03:19;;;;;;;12.33;11.23;;;14.30;99.90;;;;;;5011548;28;20199;-50